createdAt,value
2022-08-26T00:01:54.181Z,81.00
2022-08-26T00:04:23.566Z,80.40
2022-08-26T00:06:50.856Z,80.30
2022-08-26T00:09:17.620Z,80.00
2022-08-26T00:11:45.355Z,80.30
2022-08-26T00:14:13.741Z,80.30
2022-08-26T00:16:47.524Z,80.50
2022-08-26T00:19:17.710Z,80.70
2022-08-26T00:21:45.482Z,80.80
2022-08-26T00:24:13.258Z,80.90
2022-08-26T00:26:41.417Z,80.90
2022-08-26T00:29:08.416Z,81.20
2022-08-26T00:31:36.441Z,81.00
2022-08-26T00:34:04.155Z,81.10
2022-08-26T00:36:31.863Z,81.40
2022-08-26T00:38:59.072Z,81.60
2022-08-26T00:41:25.804Z,81.80
2022-08-26T00:43:53.043Z,82.50
2022-08-26T00:46:31.342Z,83.20
2022-08-26T00:49:19.736Z,83.10
2022-08-26T00:51:52.260Z,83.90
2022-08-26T00:54:22.882Z,83.40
2022-08-26T00:56:53.252Z,83.40
2022-08-26T00:59:21.033Z,84.60
2022-08-26T01:01:47.971Z,84.80
2022-08-26T01:04:19.132Z,84.60
2022-08-26T01:06:47.958Z,84.80
2022-08-26T01:09:15.787Z,85.00
2022-08-26T01:11:42.766Z,84.60
2022-08-26T01:14:12.336Z,84.30
2022-08-26T01:16:39.174Z,83.90
2022-08-26T01:19:24.954Z,84.50
2022-08-26T01:22:02.442Z,84.10
2022-08-26T01:24:30.765Z,84.10
2022-08-26T01:27:01.636Z,84.40
2022-08-26T01:29:30.705Z,83.80
2022-08-26T01:31:58.759Z,84.00
2022-08-26T01:34:32.637Z,84.80
2022-08-26T01:37:11.734Z,85.60
2022-08-26T01:39:43.551Z,86.50
2022-08-26T01:42:14.623Z,86.70
2022-08-26T01:45:07.789Z,86.80
2022-08-26T01:47:37.841Z,87.40
2022-08-26T01:50:11.607Z,85.60
2022-08-26T01:52:41.245Z,85.20
2022-08-26T01:55:11.649Z,85.10
2022-08-26T01:57:39.301Z,84.80
2022-08-26T02:00:08.778Z,85.10
2022-08-26T02:02:35.497Z,85.40
2022-08-26T02:05:07.152Z,86.00
2022-08-26T02:07:34.391Z,85.10
2022-08-26T02:10:01.142Z,84.10
2022-08-26T02:12:28.261Z,84.00
2022-08-26T02:14:59.541Z,84.50
2022-08-26T02:17:33.800Z,85.00
2022-08-26T02:20:02.163Z,85.20
2022-08-26T02:22:30.572Z,85.60
2022-08-26T02:25:00.741Z,86.10
2022-08-26T02:27:33.249Z,86.00
2022-08-26T02:30:07.341Z,85.70
2022-08-26T02:32:34.089Z,86.10
2022-08-26T02:35:02.048Z,86.20
2022-08-26T02:37:30.940Z,86.80
2022-08-26T02:39:58.143Z,86.70
2022-08-26T02:42:25.035Z,86.90
2022-08-26T02:44:52.071Z,87.20
2022-08-26T02:47:18.787Z,87.60
2022-08-26T02:49:47.209Z,88.10
2022-08-26T02:52:14.561Z,88.50
2022-08-26T02:54:41.317Z,88.60
2022-08-26T02:57:09.240Z,88.40
2022-08-26T02:59:36.090Z,88.40
2022-08-26T03:02:03.233Z,88.50
2022-08-26T03:04:31.065Z,88.90
2022-08-26T03:07:00.220Z,89.40
2022-08-26T03:09:27.911Z,89.70
2022-08-26T03:11:55.461Z,89.90
2022-08-26T03:14:23.955Z,90.10
2022-08-26T03:16:53.879Z,90.10
2022-08-26T03:19:22.832Z,90.20
2022-08-26T03:21:49.665Z,90.30
2022-08-26T03:24:17.744Z,90.50
2022-08-26T03:26:52.969Z,90.50
2022-08-26T03:29:40.067Z,90.60
2022-08-26T03:32:07.129Z,90.70
2022-08-26T03:34:34.037Z,90.70
2022-08-26T03:37:01.162Z,90.60
2022-08-26T03:39:28.202Z,90.60
2022-08-26T03:41:58.887Z,90.80
2022-08-26T03:44:26.643Z,90.90
2022-08-26T03:46:54.499Z,91.00
2022-08-26T03:49:22.263Z,91.00
2022-08-26T03:51:49.003Z,90.90
2022-08-26T03:54:16.881Z,90.90
2022-08-26T03:56:43.582Z,91.00
2022-08-26T03:59:13.635Z,90.80
2022-08-26T04:01:40.396Z,90.80
2022-08-26T04:04:07.174Z,90.80
2022-08-26T04:06:42.395Z,90.70
2022-08-26T04:09:19.205Z,90.60
2022-08-26T04:11:47.522Z,90.70
2022-08-26T04:14:22.203Z,90.60
2022-08-26T04:16:49.744Z,90.50
2022-08-26T04:19:18.683Z,90.40
2022-08-26T04:21:48.095Z,90.50
2022-08-26T04:24:16.210Z,90.40
2022-08-26T04:26:44.417Z,90.30
2022-08-26T04:29:18.556Z,90.00
2022-08-26T04:31:47.978Z,89.00
2022-08-26T04:34:15.226Z,88.10
2022-08-26T04:36:43.161Z,86.70
2022-08-26T04:39:18.728Z,85.50
2022-08-26T04:41:48.038Z,84.40
2022-08-26T04:44:16.443Z,82.90
2022-08-26T04:46:44.338Z,82.30
2022-08-26T04:49:11.485Z,81.40
2022-08-26T04:51:39.037Z,80.50
2022-08-26T04:54:07.163Z,79.20
2022-08-26T04:56:40.186Z,78.40
2022-08-26T04:59:16.683Z,77.20
2022-08-26T05:01:46.652Z,76.40
2022-08-26T05:04:13.792Z,75.30
2022-08-26T05:06:43.584Z,74.70
2022-08-26T05:09:14.015Z,73.30
2022-08-26T05:11:42.388Z,72.30
2022-08-26T05:14:09.674Z,71.40
2022-08-26T05:16:37.626Z,71.60
2022-08-26T05:19:08.543Z,71.00
2022-08-26T05:21:36.407Z,69.80
2022-08-26T05:24:04.682Z,69.40
2022-08-26T05:26:32.043Z,68.90
2022-08-26T05:28:58.947Z,68.10
2022-08-26T05:31:32.563Z,67.30
2022-08-26T05:34:03.687Z,66.80
2022-08-26T05:36:33.486Z,65.80
2022-08-26T05:39:02.559Z,65.80
2022-08-26T05:41:34.273Z,65.50
2022-08-26T05:44:05.919Z,65.00
2022-08-26T05:46:33.547Z,64.60
2022-08-26T05:49:01.711Z,64.40
2022-08-26T05:51:29.298Z,63.80
2022-08-26T05:53:58.389Z,63.60
2022-08-26T05:56:27.357Z,63.50
2022-08-26T05:58:55.412Z,63.50
2022-08-26T06:01:28.374Z,63.00
2022-08-26T06:03:59.695Z,62.60
2022-08-26T06:06:32.436Z,62.30
2022-08-26T06:09:00.369Z,62.10
2022-08-26T06:11:30.492Z,61.90
2022-08-26T06:14:03.574Z,61.90
2022-08-26T06:16:32.589Z,61.80
2022-08-26T06:19:02.991Z,61.60
2022-08-26T06:21:35.580Z,62.10
2022-08-26T06:24:26.957Z,61.60
2022-08-26T06:26:56.969Z,61.40
2022-08-26T06:29:25.844Z,60.80
2022-08-26T06:31:54.019Z,60.40
2022-08-26T06:34:23.590Z,59.70
2022-08-26T06:36:58.416Z,60.50
2022-08-26T06:39:25.345Z,59.10
2022-08-26T06:41:52.150Z,59.60
2022-08-26T06:44:19.485Z,58.00
2022-08-26T06:46:50.311Z,57.00
2022-08-26T06:49:18.238Z,57.10
2022-08-26T06:51:55.173Z,55.50
2022-08-26T06:54:22.034Z,55.80
2022-08-26T06:56:49.467Z,54.20
2022-08-26T06:59:16.285Z,54.00
2022-08-26T07:01:45.002Z,54.20
2022-08-26T07:04:15.673Z,52.70
2022-08-26T07:06:48.942Z,52.00
2022-08-26T07:09:17.398Z,52.20
2022-08-26T07:11:45.111Z,53.30
2022-08-26T07:14:12.785Z,52.20
2022-08-26T07:16:42.732Z,52.50
2022-08-26T07:19:10.828Z,52.10
2022-08-26T07:21:41.495Z,49.80
2022-08-26T07:24:11.184Z,51.10
2022-08-26T07:26:39.278Z,50.30
2022-08-26T07:29:12.418Z,49.00
2022-08-26T07:31:42.709Z,49.80
2022-08-26T07:34:10.842Z,48.80
2022-08-26T07:36:38.002Z,49.40
2022-08-26T07:39:06.130Z,48.60
2022-08-26T07:41:33.506Z,48.00
2022-08-26T07:44:00.914Z,49.00
2022-08-26T07:46:30.186Z,48.40
2022-08-26T07:48:58.249Z,50.00
2022-08-26T07:51:26.606Z,49.70
2022-08-26T07:53:54.746Z,48.30
2022-08-26T07:56:23.265Z,48.70
